INFORMACIÓN METAR y TAF
METAR FOR LTFM
ADDS - METARS form results

(1048 UTC 08 August 2022)
Data provider http://aviationweather.gov/metar/data/
 
METAR text: LTFM 081020Z 05018KT 9999 SCT020 29/23 Q1012 NOSIG RMK RWY17L 03019KT RWY34L 02020KT RWY16R 04020KT RWY36 05018KT RWY18 04018KT
Conditions at: LTFM (ISTANBUL HANALI , TR) observed 1020 UTC 08 August 2022
Temperature: 29.0°C (84°F)
Dewpoint: 23.0°C (73°F) [RH = 70%]
Pressure (altimeter): 29.88 inches Hg (1012.0 mb)
Winds: from the NE (50 degrees) at 21 MPH (18 knots; 9.3 m/s)
Visibility: 6 or more miles (10+ km)
Ceiling: at least 12,000 feet AGL
Clouds: scattered clouds at 2000 feet AGL
Weather: no significant weather observed at this time

METAR text: LTFM 080950Z 05020KT 9999 SCT020 28/23 Q1013 NOSIG RMK RWY17L 04019KT RWY34L 04016KT RWY16R 04018KT RWY36 05018G28KT RWY18 05015KT
Conditions at: LTFM (ISTANBUL HANALI , TR) observed 0950 UTC 08 August 2022
Temperature: 28.0°C (82°F)
Dewpoint: 23.0°C (73°F) [RH = 74%]
Pressure (altimeter): 29.91 inches Hg (1013.0 mb)
Winds: from the NE (50 degrees) at 23 MPH (20 knots; 10.3 m/s)
Visibility: 6 or more miles (10+ km)
Ceiling: at least 12,000 feet AGL
Clouds: scattered clouds at 2000 feet AGL
Weather: no significant weather observed at this time

Forecast for: LTFM (ISTANBUL HANALI , TR)
Text: TAF LTFM 080440Z 0806/0912 03022KT 9999 BKN022
Forecast period: 0600 to 0700 UTC 08 August 2022
Forecast type: FROM: standard forecast or significant change
Winds: from the NNE (30 degrees) at 25 MPH (22 knots; 11.3 m/s)
Visibility: 6 or more miles (10+ km)
Ceiling: 2200 feet AGL
Clouds: broken clouds at 2200 feet AGL
Weather: no significant weather forecast for this period
Text: BECMG 0807/0810 SCT025
Forecast period: 0700 to 1700 UTC 08 August 2022
Forecast type: BECOMING: Conditions expected to become as follows by 1000 UTC 08 August 2022
Winds: from the NNE (30 degrees) at 25 MPH (22 knots; 11.3 m/s)
Visibility: 6 or more miles (10+ km)
Ceiling: at least 12,000 feet AGL
Clouds: scattered clouds at 2500 feet AGL
Weather: no significant weather forecast for this period
Text: BECMG 0817/0820 04012KT
Forecast period: 1700 UTC 08 August 2022 to 1200 UTC 09 August 2022
Forecast type: BECOMING: Conditions expected to become as follows by 2000 UTC 08 August 2022
Winds: from the NE (40 degrees) at 14 MPH (12 knots; 6.2 m/s)
Visibility: 6 or more miles (10+ km)
Ceiling: at least 12,000 feet AGL
Clouds: scattered clouds at 2500 feet AGL
Weather: no significant weather forecast for this period

 MAPA DE AEROPUERTO

 INFORMACIÓN DE PISTA

 FRECUANCIAS DEL AEROPUERTO

 RADIO AYUDAS DEL AEROPUERTO



Powered by Virtual Airlines Manager [v2.6.2]